sensor_id;sensor_type;location;lat;lon;timestamp;pressure;altitude;pressure_sealevel;temperature;humidity
56912;BME280;42800;53.928;27.662;2022-08-21T00:00:50;99484.47;;;18.21;100.00
56912;BME280;42800;53.928;27.662;2022-08-21T00:03:16;99498.94;;;17.95;100.00
56912;BME280;42800;53.928;27.662;2022-08-21T00:05:44;99488.59;;;17.99;100.00
56912;BME280;42800;53.928;27.662;2022-08-21T00:08:11;99465.69;;;17.87;100.00
56912;BME280;42800;53.928;27.662;2022-08-21T00:10:38;99490.22;;;17.96;100.00
56912;BME280;42800;53.928;27.662;2022-08-21T00:13:05;99484.81;;;18.27;100.00
56912;BME280;42800;53.928;27.662;2022-08-21T00:15:33;99512.66;;;18.16;100.00
56912;BME280;42800;53.928;27.662;2022-08-21T00:18:00;99505.97;;;18.10;100.00
56912;BME280;42800;53.928;27.662;2022-08-21T00:20:26;99501.00;;;17.80;100.00
56912;BME280;42800;53.928;27.662;2022-08-21T00:22:53;99499.91;;;18.22;100.00
56912;BME280;42800;53.928;27.662;2022-08-21T00:25:20;99504.09;;;17.93;100.00
56912;BME280;42800;53.928;27.662;2022-08-21T00:27:47;99496.09;;;18.02;100.00
56912;BME280;42800;53.928;27.662;2022-08-21T00:30:16;99500.94;;;17.91;100.00
56912;BME280;42800;53.928;27.662;2022-08-21T00:32:43;99493.00;;;17.89;100.00
56912;BME280;42800;53.928;27.662;2022-08-21T00:35:11;99476.19;;;18.14;100.00
56912;BME280;42800;53.928;27.662;2022-08-21T00:37:39;99503.63;;;18.01;100.00
56912;BME280;42800;53.928;27.662;2022-08-21T00:40:08;99487.66;;;18.20;100.00
56912;BME280;42800;53.928;27.662;2022-08-21T00:42:34;99508.00;;;17.99;100.00
56912;BME280;42800;53.928;27.662;2022-08-21T00:45:02;99477.94;;;17.94;100.00
56912;BME280;42800;53.928;27.662;2022-08-21T00:47:29;99489.38;;;17.99;100.00
56912;BME280;42800;53.928;27.662;2022-08-21T00:49:55;99468.06;;;17.93;100.00
56912;BME280;42800;53.928;27.662;2022-08-21T00:52:24;99490.19;;;18.00;100.00
56912;BME280;42800;53.928;27.662;2022-08-21T00:54:52;99484.22;;;18.01;100.00
56912;BME280;42800;53.928;27.662;2022-08-21T00:57:22;99490.84;;;18.15;100.00
56912;BME280;42800;53.928;27.662;2022-08-21T00:59:51;99485.94;;;17.81;100.00
56912;BME280;42800;53.928;27.662;2022-08-21T01:02:21;99474.44;;;17.75;100.00
56912;BME280;42800;53.928;27.662;2022-08-21T01:04:48;99477.97;;;17.90;100.00
56912;BME280;42800;53.928;27.662;2022-08-21T01:07:15;99455.50;;;17.67;100.00
56912;BME280;42800;53.928;27.662;2022-08-21T01:09:42;99438.09;;;17.66;100.00
56912;BME280;42800;53.928;27.662;2022-08-21T01:12:09;99440.81;;;17.73;100.00
56912;BME280;42800;53.928;27.662;2022-08-21T01:14:37;99450.69;;;17.81;100.00
56912;BME280;42800;53.928;27.662;2022-08-21T01:17:05;99444.41;;;17.67;100.00
56912;BME280;42800;53.928;27.662;2022-08-21T01:19:33;99438.88;;;17.67;100.00
56912;BME280;42800;53.928;27.662;2022-08-21T01:22:00;99440.88;;;17.62;100.00
56912;BME280;42800;53.928;27.662;2022-08-21T01:24:26;99413.59;;;17.57;100.00
56912;BME280;42800;53.928;27.662;2022-08-21T01:26:54;99421.00;;;17.78;100.00
56912;BME280;42800;53.928;27.662;2022-08-21T01:29:28;99430.66;;;17.49;100.00
56912;BME280;42800;53.928;27.662;2022-08-21T01:31:56;99422.34;;;17.49;100.00
56912;BME280;42800;53.928;27.662;2022-08-21T01:34:23;99400.94;;;17.56;100.00
56912;BME280;42800;53.928;27.662;2022-08-21T01:36:49;99426.38;;;17.37;100.00
56912;BME280;42800;53.928;27.662;2022-08-21T01:39:17;99427.00;;;17.62;100.00
56912;BME280;42800;53.928;27.662;2022-08-21T01:41:43;99424.22;;;17.66;100.00
56912;BME280;42800;53.928;27.662;2022-08-21T01:44:09;99421.47;;;17.59;100.00
56912;BME280;42800;53.928;27.662;2022-08-21T01:46:36;99443.63;;;17.66;100.00
56912;BME280;42800;53.928;27.662;2022-08-21T01:49:03;99451.88;;;17.80;100.00
56912;BME280;42800;53.928;27.662;2022-08-21T01:51:29;99450.84;;;17.53;100.00
56912;BME280;42800;53.928;27.662;2022-08-21T01:53:55;99417.59;;;17.46;100.00
56912;BME280;42800;53.928;27.662;2022-08-21T01:56:23;99443.59;;;17.73;100.00
56912;BME280;42800;53.928;27.662;2022-08-21T01:58:51;99455.53;;;17.63;100.00
56912;BME280;42800;53.928;27.662;2022-08-21T02:01:17;99457.97;;;17.50;100.00
56912;BME280;42800;53.928;27.662;2022-08-21T02:03:43;99442.44;;;17.67;100.00
56912;BME280;42800;53.928;27.662;2022-08-21T02:06:14;99461.41;;;17.72;100.00
56912;BME280;42800;53.928;27.662;2022-08-21T02:08:43;99449.28;;;17.45;100.00
56912;BME280;42800;53.928;27.662;2022-08-21T02:11:09;99449.19;;;17.62;100.00
56912;BME280;42800;53.928;27.662;2022-08-21T02:13:36;99435.03;;;17.46;100.00
56912;BME280;42800;53.928;27.662;2022-08-21T02:16:03;99418.00;;;17.48;100.00
56912;BME280;42800;53.928;27.662;2022-08-21T02:18:29;99416.88;;;17.34;100.00
56912;BME280;42800;53.928;27.662;2022-08-21T02:20:56;99416.75;;;17.56;100.00
56912;BME280;42800;53.928;27.662;2022-08-21T02:23:22;99415.69;;;17.35;100.00
56912;BME280;42800;53.928;27.662;2022-08-21T02:25:49;99406.25;;;17.22;100.00
56912;BME280;42800;53.928;27.662;2022-08-21T02:28:15;99403.44;;;17.36;100.00
56912;BME280;42800;53.928;27.662;2022-08-21T02:30:44;99420.56;;;17.13;100.00
56912;BME280;42800;53.928;27.662;2022-08-21T02:33:11;99386.13;;;17.11;100.00
56912;BME280;42800;53.928;27.662;2022-08-21T02:35:38;99369.59;;;17.00;100.00
56912;BME280;42800;53.928;27.662;2022-08-21T02:38:06;99341.91;;;16.97;100.00
56912;BME280;42800;53.928;27.662;2022-08-21T02:40:36;99337.72;;;17.33;100.00
56912;BME280;42800;53.928;27.662;2022-08-21T02:43:04;99388.25;;;17.52;100.00
56912;BME280;42800;53.928;27.662;2022-08-21T02:45:31;99386.31;;;17.49;100.00
56912;BME280;42800;53.928;27.662;2022-08-21T02:48:01;99423.19;;;17.38;100.00
56912;BME280;42800;53.928;27.662;2022-08-21T02:50:31;99424.53;;;17.05;100.00
56912;BME280;42800;53.928;27.662;2022-08-21T02:52:57;99386.81;;;17.29;100.00
56912;BME280;42800;53.928;27.662;2022-08-21T02:55:26;99401.47;;;17.33;100.00
56912;BME280;42800;53.928;27.662;2022-08-21T02:57:53;99407.44;;;17.25;100.00
56912;BME280;42800;53.928;27.662;2022-08-21T03:00:20;99423.00;;;17.71;100.00
56912;BME280;42800;53.928;27.662;2022-08-21T03:02:47;99464.72;;;17.46;100.00
56912;BME280;42800;53.928;27.662;2022-08-21T03:05:14;99463.00;;;17.73;100.00
56912;BME280;42800;53.928;27.662;2022-08-21T03:07:41;99461.88;;;17.60;100.00
56912;BME280;42800;53.928;27.662;2022-08-21T03:10:08;99470.69;;;17.40;100.00
56912;BME280;42800;53.928;27.662;2022-08-21T03:12:35;99459.66;;;17.30;100.00
56912;BME280;42800;53.928;27.662;2022-08-21T03:15:01;99455.22;;;17.47;100.00
56912;BME280;42800;53.928;27.662;2022-08-21T03:17:27;99448.94;;;17.35;100.00
56912;BME280;42800;53.928;27.662;2022-08-21T03:19:54;99465.41;;;17.64;100.00
56912;BME280;42800;53.928;27.662;2022-08-21T03:22:21;99468.22;;;17.60;100.00
56912;BME280;42800;53.928;27.662;2022-08-21T03:24:47;99467.81;;;17.62;100.00
56912;BME280;42800;53.928;27.662;2022-08-21T03:27:13;99464.41;;;17.33;100.00
56912;BME280;42800;53.928;27.662;2022-08-21T03:29:40;99444.16;;;17.43;100.00
56912;BME280;42800;53.928;27.662;2022-08-21T03:32:06;99448.06;;;17.56;100.00
56912;BME280;42800;53.928;27.662;2022-08-21T03:34:34;99465.81;;;17.62;100.00
56912;BME280;42800;53.928;27.662;2022-08-21T03:37:01;99485.56;;;17.72;100.00
56912;BME280;42800;53.928;27.662;2022-08-21T03:39:28;99474.13;;;17.66;100.00
56912;BME280;42800;53.928;27.662;2022-08-21T03:41:54;99494.34;;;17.56;100.00
56912;BME280;42800;53.928;27.662;2022-08-21T03:44:21;99461.25;;;17.31;100.00
56912;BME280;42800;53.928;27.662;2022-08-21T03:46:47;99458.78;;;17.47;100.00
56912;BME280;42800;53.928;27.662;2022-08-21T03:49:14;99460.81;;;17.32;100.00
56912;BME280;42800;53.928;27.662;2022-08-21T03:51:40;99450.09;;;17.41;100.00
56912;BME280;42800;53.928;27.662;2022-08-21T03:54:06;99461.47;;;17.61;100.00
56912;BME280;42800;53.928;27.662;2022-08-21T03:56:33;99472.19;;;17.59;100.00
56912;BME280;42800;53.928;27.662;2022-08-21T03:58:59;99478.03;;;17.79;100.00
56912;BME280;42800;53.928;27.662;2022-08-21T04:01:28;99485.19;;;17.77;100.00
56912;BME280;42800;53.928;27.662;2022-08-21T04:03:54;99495.84;;;17.78;100.00
56912;BME280;42800;53.928;27.662;2022-08-21T04:06:20;99496.19;;;17.87;100.00
56912;BME280;42800;53.928;27.662;2022-08-21T04:08:46;99516.41;;;17.88;100.00
56912;BME280;42800;53.928;27.662;2022-08-21T04:11:13;99505.34;;;17.84;100.00
56912;BME280;42800;53.928;27.662;2022-08-21T04:13:41;99514.19;;;17.51;100.00
56912;BME280;42800;53.928;27.662;2022-08-21T04:16:07;99500.63;;;17.71;100.00
56912;BME280;42800;53.928;27.662;2022-08-21T04:18:33;99513.22;;;17.93;100.00
56912;BME280;42800;53.928;27.662;2022-08-21T04:21:02;99513.34;;;17.64;100.00
56912;BME280;42800;53.928;27.662;2022-08-21T04:23:29;99511.72;;;17.71;100.00
56912;BME280;42800;53.928;27.662;2022-08-21T04:25:56;99512.47;;;17.82;100.00
56912;BME280;42800;53.928;27.662;2022-08-21T04:28:23;99520.31;;;17.98;100.00
56912;BME280;42800;53.928;27.662;2022-08-21T04:30:52;99527.44;;;17.99;100.00
56912;BME280;42800;53.928;27.662;2022-08-21T04:33:18;99531.53;;;17.80;100.00
56912;BME280;42800;53.928;27.662;2022-08-21T04:35:45;99530.72;;;17.79;100.00
56912;BME280;42800;53.928;27.662;2022-08-21T04:38:11;99513.34;;;17.64;100.00
56912;BME280;42800;53.928;27.662;2022-08-21T04:40:37;99509.66;;;17.93;100.00
56912;BME280;42800;53.928;27.662;2022-08-21T04:43:05;99527.44;;;17.99;100.00
56912;BME280;42800;53.928;27.662;2022-08-21T04:45:35;99532.66;;;17.90;100.00
56912;BME280;42800;53.928;27.662;2022-08-21T04:48:05;99525.97;;;17.80;100.00
56912;BME280;42800;53.928;27.662;2022-08-21T04:50:37;99517.91;;;18.03;100.00
56912;BME280;42800;53.928;27.662;2022-08-21T04:53:07;99508.97;;;17.67;100.00
56912;BME280;42800;53.928;27.662;2022-08-21T04:55:34;99524.16;;;18.15;100.00
56912;BME280;42800;53.928;27.662;2022-08-21T04:58:02;99538.47;;;18.09;100.00
56912;BME280;42800;53.928;27.662;2022-08-21T05:00:28;99546.38;;;18.11;100.00
56912;BME280;42800;53.928;27.662;2022-08-21T05:02:55;99553.44;;;18.23;100.00
56912;BME280;42800;53.928;27.662;2022-08-21T05:05:25;99557.50;;;18.07;100.00
56912;BME280;42800;53.928;27.662;2022-08-21T05:07:51;99563.91;;;17.97;100.00
56912;BME280;42800;53.928;27.662;2022-08-21T05:10:19;99547.56;;;18.14;100.00
56912;BME280;42800;53.928;27.662;2022-08-21T05:12:46;99539.78;;;17.87;100.00
56912;BME280;42800;53.928;27.662;2022-08-21T05:15:12;99536.16;;;17.97;100.00
56912;BME280;42800;53.928;27.662;2022-08-21T05:17:39;99528.25;;;17.92;100.00
56912;BME280;42800;53.928;27.662;2022-08-21T05:20:06;99530.59;;;18.01;100.00
56912;BME280;42800;53.928;27.662;2022-08-21T05:22:33;99529.66;;;18.22;100.00
56912;BME280;42800;53.928;27.662;2022-08-21T05:24:59;99548.19;;;18.35;100.00
56912;BME280;42800;53.928;27.662;2022-08-21T05:27:26;99552.13;;;18.38;100.00
56912;BME280;42800;53.928;27.662;2022-08-21T05:29:55;99557.59;;;18.49;100.00
56912;BME280;42800;53.928;27.662;2022-08-21T05:32:21;99538.97;;;17.94;100.00
56912;BME280;42800;53.928;27.662;2022-08-21T05:34:48;99543.22;;;18.05;100.00
56912;BME280;42800;53.928;27.662;2022-08-21T05:37:14;99533.13;;;17.70;100.00
56912;BME280;42800;53.928;27.662;2022-08-21T05:39:41;99542.06;;;18.55;100.00
56912;BME280;42800;53.928;27.662;2022-08-21T05:42:08;99547.06;;;18.26;100.00
56912;BME280;42800;53.928;27.662;2022-08-21T05:44:34;99551.88;;;18.74;100.00
56912;BME280;42800;53.928;27.662;2022-08-21T05:47:03;99555.72;;;18.35;100.00
56912;BME280;42800;53.928;27.662;2022-08-21T05:49:30;99545.44;;;18.32;100.00
56912;BME280;42800;53.928;27.662;2022-08-21T05:51:56;99553.91;;;18.66;100.00
56912;BME280;42800;53.928;27.662;2022-08-21T05:54:22;99552.66;;;18.71;100.00
56912;BME280;42800;53.928;27.662;2022-08-21T05:56:49;99545.59;;;18.59;100.00
56912;BME280;42800;53.928;27.662;2022-08-21T05:59:15;99551.19;;;19.04;100.00
56912;BME280;42800;53.928;27.662;2022-08-21T06:01:42;99542.53;;;18.95;100.00
56912;BME280;42800;53.928;27.662;2022-08-21T06:04:08;99536.06;;;19.05;100.00
56912;BME280;42800;53.928;27.662;2022-08-21T06:06:34;99522.75;;;18.89;100.00
56912;BME280;42800;53.928;27.662;2022-08-21T06:09:00;99524.69;;;19.30;100.00
56912;BME280;42800;53.928;27.662;2022-08-21T06:11:27;99503.69;;;19.25;100.00
56912;BME280;42800;53.928;27.662;2022-08-21T06:13:54;99485.91;;;19.81;100.00
56912;BME280;42800;53.928;27.662;2022-08-21T06:16:21;99442.00;;;19.38;100.00
56912;BME280;42800;53.928;27.662;2022-08-21T06:18:48;99459.69;;;19.20;100.00
56912;BME280;42800;53.928;27.662;2022-08-21T06:21:14;99454.91;;;19.51;100.00
56912;BME280;42800;53.928;27.662;2022-08-21T06:23:41;99451.47;;;19.98;100.00
56912;BME280;42800;53.928;27.662;2022-08-21T06:26:09;99351.09;;;20.09;100.00
56912;BME280;42800;53.928;27.662;2022-08-21T06:28:36;99272.34;;;20.32;100.00
56912;BME280;42800;53.928;27.662;2022-08-21T06:31:11;99155.25;;;20.91;100.00
56912;BME280;42800;53.928;27.662;2022-08-21T06:33:38;99176.88;;;20.51;100.00
56912;BME280;42800;53.928;27.662;2022-08-21T06:36:04;99065.66;;;20.93;100.00
56912;BME280;42800;53.928;27.662;2022-08-21T06:38:30;98996.94;;;21.03;100.00
56912;BME280;42800;53.928;27.662;2022-08-21T06:40:57;98848.66;;;21.08;100.00
56912;BME280;42800;53.928;27.662;2022-08-21T06:43:23;98958.72;;;21.58;100.00
56912;BME280;42800;53.928;27.662;2022-08-21T06:45:50;98698.69;;;22.11;100.00
56912;BME280;42800;53.928;27.662;2022-08-21T06:48:17;98573.06;;;22.33;100.00
56912;BME280;42800;53.928;27.662;2022-08-21T06:50:43;98621.38;;;21.76;100.00
56912;BME280;42800;53.928;27.662;2022-08-21T06:53:12;98546.81;;;22.30;100.00
56912;BME280;42800;53.928;27.662;2022-08-21T06:55:39;98701.47;;;21.54;100.00
56912;BME280;42800;53.928;27.662;2022-08-21T06:58:06;98596.41;;;22.17;100.00
56912;BME280;42800;53.928;27.662;2022-08-21T07:00:32;98416.56;;;23.10;100.00
56912;BME280;42800;53.928;27.662;2022-08-21T07:02:59;98292.41;;;23.59;100.00
56912;BME280;42800;53.928;27.662;2022-08-21T07:05:28;98216.47;;;23.51;100.00
56912;BME280;42800;53.928;27.662;2022-08-21T07:07:54;98054.66;;;25.03;100.00
56912;BME280;42800;53.928;27.662;2022-08-21T07:10:21;98002.72;;;25.54;100.00
56912;BME280;42800;53.928;27.662;2022-08-21T07:12:47;98008.41;;;25.60;100.00
56912;BME280;42800;53.928;27.662;2022-08-21T07:15:13;98009.31;;;25.25;100.00
56912;BME280;42800;53.928;27.662;2022-08-21T07:17:39;98012.81;;;26.24;100.00
56912;BME280;42800;53.928;27.662;2022-08-21T07:20:06;98017.44;;;25.44;100.00
56912;BME280;42800;53.928;27.662;2022-08-21T07:22:35;97992.94;;;25.44;100.00
56912;BME280;42800;53.928;27.662;2022-08-21T07:25:02;97995.47;;;25.94;100.00
56912;BME280;42800;53.928;27.662;2022-08-21T07:27:29;98004.66;;;24.81;100.00
56912;BME280;42800;53.928;27.662;2022-08-21T07:29:57;98033.16;;;24.09;100.00
56912;BME280;42800;53.928;27.662;2022-08-21T07:32:23;98096.84;;;23.22;100.00
56912;BME280;42800;53.928;27.662;2022-08-21T07:34:49;98152.94;;;22.85;100.00
56912;BME280;42800;53.928;27.662;2022-08-21T07:37:16;98199.22;;;23.53;100.00
56912;BME280;42800;53.928;27.662;2022-08-21T07:39:43;98088.66;;;24.11;100.00
56912;BME280;42800;53.928;27.662;2022-08-21T07:42:10;98077.44;;;23.81;100.00
56912;BME280;42800;53.928;27.662;2022-08-21T07:44:36;98154.84;;;23.12;100.00
56912;BME280;42800;53.928;27.662;2022-08-21T07:47:02;98176.84;;;23.77;100.00
56912;BME280;42800;53.928;27.662;2022-08-21T07:49:29;98149.97;;;23.22;100.00
56912;BME280;42800;53.928;27.662;2022-08-21T07:51:56;98151.47;;;23.56;100.00
56912;BME280;42800;53.928;27.662;2022-08-21T07:54:22;98175.56;;;23.54;100.00
56912;BME280;42800;53.928;27.662;2022-08-21T07:56:49;98203.19;;;23.04;100.00
56912;BME280;42800;53.928;27.662;2022-08-21T07:59:15;98357.13;;;22.63;100.00
56912;BME280;42800;53.928;27.662;2022-08-21T08:01:42;98423.94;;;22.21;100.00
56912;BME280;42800;53.928;27.662;2022-08-21T08:04:08;98475.44;;;22.29;100.00
56912;BME280;42800;53.928;27.662;2022-08-21T08:06:34;98367.19;;;22.61;100.00
56912;BME280;42800;53.928;27.662;2022-08-21T08:09:00;98415.28;;;22.37;100.00
56912;BME280;42800;53.928;27.662;2022-08-21T08:11:29;98348.09;;;22.87;100.00
56912;BME280;42800;53.928;27.662;2022-08-21T08:13:56;98374.94;;;22.38;100.00
56912;BME280;42800;53.928;27.662;2022-08-21T08:16:23;98475.00;;;22.30;100.00
56912;BME280;42800;53.928;27.662;2022-08-21T08:18:49;98388.19;;;22.93;100.00
56912;BME280;42800;53.928;27.662;2022-08-21T08:21:16;98260.72;;;22.59;100.00
56912;BME280;42800;53.928;27.662;2022-08-21T08:23:44;98257.25;;;22.82;100.00
56912;BME280;42800;53.928;27.662;2022-08-21T08:26:11;98239.19;;;23.11;100.00
56912;BME280;42800;53.928;27.662;2022-08-21T08:28:37;98349.81;;;22.38;100.00
56912;BME280;42800;53.928;27.662;2022-08-21T08:31:04;98367.16;;;22.88;100.00
56912;BME280;42800;53.928;27.662;2022-08-21T08:33:30;98278.34;;;23.01;100.00
56912;BME280;42800;53.928;27.662;2022-08-21T08:35:57;98223.78;;;23.48;100.00
56912;BME280;42800;53.928;27.662;2022-08-21T08:38:24;98213.97;;;23.53;100.00
56912;BME280;42800;53.928;27.662;2022-08-21T08:40:57;98215.59;;;23.36;100.00
56912;BME280;42800;53.928;27.662;2022-08-21T08:43:27;98125.13;;;24.02;100.00
56912;BME280;42800;53.928;27.662;2022-08-21T08:45:56;98036.50;;;24.28;100.00
56912;BME280;42800;53.928;27.662;2022-08-21T08:48:46;97972.91;;;25.10;100.00
56912;BME280;42800;53.928;27.662;2022-08-21T08:51:18;97945.88;;;25.86;100.00
56912;BME280;42800;53.928;27.662;2022-08-21T08:53:49;97969.09;;;26.49;100.00
56912;BME280;42800;53.928;27.662;2022-08-21T08:56:21;97946.53;;;25.43;100.00
56912;BME280;42800;53.928;27.662;2022-08-21T08:58:50;97939.00;;;26.24;100.00
56912;BME280;42800;53.928;27.662;2022-08-21T09:01:20;97939.00;;;24.88;100.00
56912;BME280;42800;53.928;27.662;2022-08-21T09:03:47;97934.13;;;25.09;100.00
56912;BME280;42800;53.928;27.662;2022-08-21T09:06:25;97943.91;;;24.52;100.00
56912;BME280;42800;53.928;27.662;2022-08-21T09:09:02;97918.47;;;25.17;100.00
56912;BME280;42800;53.928;27.662;2022-08-21T09:11:40;97920.44;;;25.37;100.00
56912;BME280;42800;53.928;27.662;2022-08-21T09:14:13;97913.47;;;25.58;100.00
56912;BME280;42800;53.928;27.662;2022-08-21T09:16:51;97917.97;;;25.19;100.00
56912;BME280;42800;53.928;27.662;2022-08-21T09:19:30;97911.31;;;24.96;100.00
56912;BME280;42800;53.928;27.662;2022-08-21T09:22:06;97914.84;;;24.91;100.00
56912;BME280;42800;53.928;27.662;2022-08-21T09:24:42;97938.41;;;24.23;100.00
56912;BME280;42800;53.928;27.662;2022-08-21T09:27:10;97928.53;;;24.27;100.00
56912;BME280;42800;53.928;27.662;2022-08-21T09:29:39;97942.91;;;24.00;100.00
56912;BME280;42800;53.928;27.662;2022-08-21T09:32:15;97929.00;;;24.61;100.00
56912;BME280;42800;53.928;27.662;2022-08-21T09:34:56;97918.72;;;25.45;100.00
56912;BME280;42800;53.928;27.662;2022-08-21T09:37:24;97911.81;;;24.94;100.00
56912;BME280;42800;53.928;27.662;2022-08-21T09:39:50;97913.22;;;24.84;100.00
56912;BME280;42800;53.928;27.662;2022-08-21T09:42:22;97923.69;;;25.88;100.00
56912;BME280;42800;53.928;27.662;2022-08-21T09:45:09;97921.97;;;25.12;100.00
56912;BME280;42800;53.928;27.662;2022-08-21T09:47:36;97920.97;;;25.67;100.00
56912;BME280;42800;53.928;27.662;2022-08-21T09:50:11;97912.13;;;26.12;100.00
56912;BME280;42800;53.928;27.662;2022-08-21T09:52:45;97900.91;;;25.22;100.00
56912;BME280;42800;53.928;27.662;2022-08-21T09:55:18;97899.63;;;24.97;100.00
56912;BME280;42800;53.928;27.662;2022-08-21T09:58:04;97901.91;;;24.73;100.00
56912;BME280;42800;53.928;27.662;2022-08-21T10:00:32;97891.41;;;24.32;100.00
56912;BME280;42800;53.928;27.662;2022-08-21T10:03:11;97884.66;;;25.26;100.00
56912;BME280;42800;53.928;27.662;2022-08-21T10:05:40;97881.28;;;25.22;100.00
56912;BME280;42800;53.928;27.662;2022-08-21T10:08:17;97881.84;;;25.26;100.00
56912;BME280;42800;53.928;27.662;2022-08-21T10:10:43;97872.47;;;25.35;100.00
56912;BME280;42800;53.928;27.662;2022-08-21T10:13:12;97859.31;;;25.47;100.00
56912;BME280;42800;53.928;27.662;2022-08-21T10:15:47;97862.22;;;26.44;100.00
56912;BME280;42800;53.928;27.662;2022-08-21T10:18:21;97917.25;;;27.27;100.00
56912;BME280;42800;53.928;27.662;2022-08-21T10:20:58;97931.97;;;27.05;100.00
56912;BME280;42800;53.928;27.662;2022-08-21T10:23:42;97913.38;;;27.13;100.00
56912;BME280;42800;53.928;27.662;2022-08-21T10:26:20;97908.69;;;26.93;100.00
56912;BME280;42800;53.928;27.662;2022-08-21T10:28:57;97937.25;;;26.26;100.00
56912;BME280;42800;53.928;27.662;2022-08-21T10:31:33;97917.66;;;26.43;100.00
56912;BME280;42800;53.928;27.662;2022-08-21T10:34:13;97905.34;;;25.92;100.00
56912;BME280;42800;53.928;27.662;2022-08-21T10:36:46;97930.50;;;27.15;100.00
56912;BME280;42800;53.928;27.662;2022-08-21T10:39:21;97943.13;;;26.71;100.00
56912;BME280;42800;53.928;27.662;2022-08-21T10:42:04;97935.38;;;26.55;100.00
56912;BME280;42800;53.928;27.662;2022-08-21T10:44:41;97905.66;;;27.03;100.00
56912;BME280;42800;53.928;27.662;2022-08-21T10:47:18;97938.31;;;26.83;100.00
56912;BME280;42800;53.928;27.662;2022-08-21T10:50:01;97932.31;;;26.59;100.00
56912;BME280;42800;53.928;27.662;2022-08-21T10:52:46;97916.00;;;26.63;100.00
56912;BME280;42800;53.928;27.662;2022-08-21T10:55:18;97930.22;;;26.48;100.00
56912;BME280;42800;53.928;27.662;2022-08-21T10:57:49;97902.22;;;26.22;100.00
56912;BME280;42800;53.928;27.662;2022-08-21T11:00:19;97881.88;;;25.90;100.00
56912;BME280;42800;53.928;27.662;2022-08-21T11:02:50;97882.34;;;26.31;100.00
56912;BME280;42800;53.928;27.662;2022-08-21T11:05:25;97911.94;;;26.75;100.00
56912;BME280;42800;53.928;27.662;2022-08-21T11:08:00;97889.03;;;26.39;100.00
56912;BME280;42800;53.928;27.662;2022-08-21T11:10:33;97885.47;;;25.96;100.00
56912;BME280;42800;53.928;27.662;2022-08-21T11:13:03;97864.66;;;25.45;100.00
56912;BME280;42800;53.928;27.662;2022-08-21T11:15:37;97850.66;;;25.19;100.00
56912;BME280;42800;53.928;27.662;2022-08-21T11:18:16;97839.16;;;25.48;100.00
56912;BME280;42800;53.928;27.662;2022-08-21T11:20:48;97843.56;;;25.92;100.00
56912;BME280;42800;53.928;27.662;2022-08-21T11:23:21;97855.78;;;25.84;100.00
56912;BME280;42800;53.928;27.662;2022-08-21T11:25:52;97861.22;;;25.93;100.00
56912;BME280;42800;53.928;27.662;2022-08-21T11:28:23;97855.66;;;25.67;100.00
56912;BME280;42800;53.928;27.662;2022-08-21T11:30:59;97877.97;;;25.81;100.00
56912;BME280;42800;53.928;27.662;2022-08-21T11:33:39;97863.03;;;25.64;100.00
56912;BME280;42800;53.928;27.662;2022-08-21T11:36:15;97854.97;;;25.46;100.00
56912;BME280;42800;53.928;27.662;2022-08-21T11:38:49;97853.97;;;25.80;100.00
56912;BME280;42800;53.928;27.662;2022-08-21T11:41:25;97890.69;;;26.14;100.00
56912;BME280;42800;53.928;27.662;2022-08-21T11:44:02;97895.19;;;26.00;100.00
56912;BME280;42800;53.928;27.662;2022-08-21T11:46:39;97937.09;;;26.04;100.00
56912;BME280;42800;53.928;27.662;2022-08-21T11:49:31;97906.25;;;25.78;100.00
56912;BME280;42800;53.928;27.662;2022-08-21T11:52:08;97921.03;;;26.47;100.00
56912;BME280;42800;53.928;27.662;2022-08-21T11:54:41;97932.22;;;26.42;100.00
56912;BME280;42800;53.928;27.662;2022-08-21T11:57:13;97967.59;;;26.60;100.00
56912;BME280;42800;53.928;27.662;2022-08-21T11:59:43;97936.63;;;26.11;100.00
56912;BME280;42800;53.928;27.662;2022-08-21T12:02:13;97932.06;;;25.82;100.00
56912;BME280;42800;53.928;27.662;2022-08-21T12:04:45;97923.50;;;25.65;100.00
56912;BME280;42800;53.928;27.662;2022-08-21T12:07:14;97928.38;;;25.70;100.00
56912;BME280;42800;53.928;27.662;2022-08-21T12:09:52;97953.34;;;25.94;100.00
56912;BME280;42800;53.928;27.662;2022-08-21T12:12:24;97960.56;;;26.01;100.00
56912;BME280;42800;53.928;27.662;2022-08-21T12:15:12;97996.78;;;25.99;100.00
56912;BME280;42800;53.928;27.662;2022-08-21T12:17:50;98007.06;;;26.08;100.00
56912;BME280;42800;53.928;27.662;2022-08-21T12:20:22;98050.38;;;26.27;100.00
56912;BME280;42800;53.928;27.662;2022-08-21T12:23:04;98016.25;;;26.08;100.00
56912;BME280;42800;53.928;27.662;2022-08-21T12:25:38;98035.53;;;26.58;100.00
56912;BME280;42800;53.928;27.662;2022-08-21T12:28:08;98068.50;;;26.26;100.00
56912;BME280;42800;53.928;27.662;2022-08-21T12:30:37;98027.28;;;25.86;100.00
56912;BME280;42800;53.928;27.662;2022-08-21T12:33:09;98019.56;;;25.54;100.00
56912;BME280;42800;53.928;27.662;2022-08-21T12:35:44;98016.44;;;25.99;100.00
56912;BME280;42800;53.928;27.662;2022-08-21T12:38:15;98018.88;;;25.86;100.00
56912;BME280;42800;53.928;27.662;2022-08-21T12:40:47;98051.69;;;26.00;100.00
56912;BME280;42800;53.928;27.662;2022-08-21T12:43:18;98013.84;;;25.95;100.00
56912;BME280;42800;53.928;27.662;2022-08-21T12:45:47;98036.09;;;26.31;100.00
56912;BME280;42800;53.928;27.662;2022-08-21T12:48:20;98069.28;;;26.26;100.00
56912;BME280;42800;53.928;27.662;2022-08-21T12:50:50;98050.09;;;26.25;100.00